sensor_id;sensor_type;location;lat;lon;timestamp;P1;durP1;ratioP1;P2;durP2;ratioP2
27666;SDS011;15074;50.940;5.282;2023-06-26T00:00:30;6.78;;;6.28;;
27666;SDS011;15074;50.940;5.282;2023-06-26T00:02:57;7.70;;;6.65;;
27666;SDS011;15074;50.940;5.282;2023-06-26T00:05:22;6.60;;;6.00;;
27666;SDS011;15074;50.940;5.282;2023-06-26T00:07:48;6.55;;;5.97;;
27666;SDS011;15074;50.940;5.282;2023-06-26T00:10:13;6.60;;;6.00;;
27666;SDS011;15074;50.940;5.282;2023-06-26T00:12:39;6.22;;;5.72;;
27666;SDS011;15074;50.940;5.282;2023-06-26T00:15:05;5.53;;;5.13;;
27666;SDS011;15074;50.940;5.282;2023-06-26T00:20:02;5.70;;;5.20;;
27666;SDS011;15074;50.940;5.282;2023-06-26T00:22:30;6.63;;;6.13;;
27666;SDS011;15074;50.940;5.282;2023-06-26T00:24:55;5.93;;;5.43;;
27666;SDS011;15074;50.940;5.282;2023-06-26T00:27:21;6.75;;;5.95;;
27666;SDS011;15074;50.940;5.282;2023-06-26T00:29:47;7.97;;;5.82;;
27666;SDS011;15074;50.940;5.282;2023-06-26T00:32:12;6.32;;;5.72;;
27666;SDS011;15074;50.940;5.282;2023-06-26T00:34:38;7.00;;;5.97;;
27666;SDS011;15074;50.940;5.282;2023-06-26T00:37:03;6.25;;;5.75;;
27666;SDS011;15074;50.940;5.282;2023-06-26T00:39:29;6.53;;;6.00;;
27666;SDS011;15074;50.940;5.282;2023-06-26T00:41:55;6.25;;;5.75;;
27666;SDS011;15074;50.940;5.282;2023-06-26T00:44:21;7.28;;;6.70;;
27666;SDS011;15074;50.940;5.282;2023-06-26T00:46:46;6.32;;;5.72;;
27666;SDS011;15074;50.940;5.282;2023-06-26T00:49:12;6.40;;;5.85;;
27666;SDS011;15074;50.940;5.282;2023-06-26T00:51:38;6.80;;;6.22;;
27666;SDS011;15074;50.940;5.282;2023-06-26T00:54:04;6.60;;;6.10;;
27666;SDS011;15074;50.940;5.282;2023-06-26T00:56:31;6.43;;;5.95;;
27666;SDS011;15074;50.940;5.282;2023-06-26T00:58:57;7.35;;;6.85;;
27666;SDS011;15074;50.940;5.282;2023-06-26T01:01:22;7.13;;;6.43;;
27666;SDS011;15074;50.940;5.282;2023-06-26T01:03:50;6.15;;;5.65;;
27666;SDS011;15074;50.940;5.282;2023-06-26T01:06:18;5.43;;;5.03;;
27666;SDS011;15074;50.940;5.282;2023-06-26T01:08:46;5.97;;;5.38;;
27666;SDS011;15074;50.940;5.282;2023-06-26T01:11:14;5.97;;;5.32;;
27666;SDS011;15074;50.940;5.282;2023-06-26T01:13:41;6.90;;;5.35;;
27666;SDS011;15074;50.940;5.282;2023-06-26T01:16:09;5.60;;;5.10;;
27666;SDS011;15074;50.940;5.282;2023-06-26T01:18:36;4.65;;;4.25;;
27666;SDS011;15074;50.940;5.282;2023-06-26T01:21:07;5.20;;;4.70;;
27666;SDS011;15074;50.940;5.282;2023-06-26T01:26:22;6.18;;;4.28;;
27666;SDS011;15074;50.940;5.282;2023-06-26T01:28:51;4.07;;;3.78;;
27666;SDS011;15074;50.940;5.282;2023-06-26T01:31:18;4.55;;;4.15;;
27666;SDS011;15074;50.940;5.282;2023-06-26T01:33:44;4.28;;;3.88;;
27666;SDS011;15074;50.940;5.282;2023-06-26T01:36:11;4.55;;;4.15;;
27666;SDS011;15074;50.940;5.282;2023-06-26T01:38:37;4.80;;;3.47;;
27666;SDS011;15074;50.940;5.282;2023-06-26T01:41:03;4.70;;;4.15;;
27666;SDS011;15074;50.940;5.282;2023-06-26T01:45:59;4.65;;;4.22;;
27666;SDS011;15074;50.940;5.282;2023-06-26T01:48:34;5.32;;;4.55;;
27666;SDS011;15074;50.940;5.282;2023-06-26T01:51:07;7.28;;;5.00;;
27666;SDS011;15074;50.940;5.282;2023-06-26T01:53:36;4.57;;;4.18;;
27666;SDS011;15074;50.940;5.282;2023-06-26T01:56:07;5.03;;;4.60;;
27666;SDS011;15074;50.940;5.282;2023-06-26T01:58:38;4.47;;;4.07;;
27666;SDS011;15074;50.940;5.282;2023-06-26T02:01:09;4.90;;;4.50;;
27666;SDS011;15074;50.940;5.282;2023-06-26T02:03:35;7.13;;;4.72;;
27666;SDS011;15074;50.940;5.282;2023-06-26T02:06:01;5.72;;;4.85;;
27666;SDS011;15074;50.940;5.282;2023-06-26T02:08:26;5.90;;;5.40;;
27666;SDS011;15074;50.940;5.282;2023-06-26T02:10:52;5.82;;;5.25;;
27666;SDS011;15074;50.940;5.282;2023-06-26T02:13:32;5.43;;;5.03;;
27666;SDS011;15074;50.940;5.282;2023-06-26T02:15:58;6.47;;;5.80;;
27666;SDS011;15074;50.940;5.282;2023-06-26T02:18:23;6.63;;;5.93;;
27666;SDS011;15074;50.940;5.282;2023-06-26T02:20:49;6.22;;;5.63;;
27666;SDS011;15074;50.940;5.282;2023-06-26T02:23:15;5.32;;;4.82;;
27666;SDS011;15074;50.940;5.282;2023-06-26T02:25:41;8.10;;;4.65;;
27666;SDS011;15074;50.940;5.282;2023-06-26T02:28:06;5.38;;;4.88;;
27666;SDS011;15074;50.940;5.282;2023-06-26T02:30:32;4.72;;;4.32;;
27666;SDS011;15074;50.940;5.282;2023-06-26T02:32:57;5.05;;;4.60;;
27666;SDS011;15074;50.940;5.282;2023-06-26T02:35:23;5.70;;;4.85;;
27666;SDS011;15074;50.940;5.282;2023-06-26T02:37:49;5.22;;;4.72;;
27666;SDS011;15074;50.940;5.282;2023-06-26T02:40:15;4.20;;;3.83;;
27666;SDS011;15074;50.940;5.282;2023-06-26T02:42:41;6.13;;;4.70;;
27666;SDS011;15074;50.940;5.282;2023-06-26T02:45:06;4.65;;;3.90;;
27666;SDS011;15074;50.940;5.282;2023-06-26T02:47:33;5.93;;;4.20;;
27666;SDS011;15074;50.940;5.282;2023-06-26T02:49:58;5.15;;;4.47;;
27666;SDS011;15074;50.940;5.282;2023-06-26T02:52:24;5.68;;;4.50;;
27666;SDS011;15074;50.940;5.282;2023-06-26T02:54:50;5.97;;;4.50;;
27666;SDS011;15074;50.940;5.282;2023-06-26T02:57:16;5.90;;;5.05;;
27666;SDS011;15074;50.940;5.282;2023-06-26T02:59:42;4.57;;;4.18;;
27666;SDS011;15074;50.940;5.282;2023-06-26T03:02:07;3.95;;;3.42;;
27666;SDS011;15074;50.940;5.282;2023-06-26T03:04:33;3.85;;;3.45;;
27666;SDS011;15074;50.940;5.282;2023-06-26T03:09:27;4.97;;;3.35;;
27666;SDS011;15074;50.940;5.282;2023-06-26T03:11:53;6.57;;;3.20;;
27666;SDS011;15074;50.940;5.282;2023-06-26T03:14:20;4.38;;;3.95;;
27666;SDS011;15074;50.940;5.282;2023-06-26T03:16:46;3.90;;;3.03;;
27666;SDS011;15074;50.940;5.282;2023-06-26T03:19:11;4.95;;;3.25;;
27666;SDS011;15074;50.940;5.282;2023-06-26T03:21:37;4.60;;;3.25;;
27666;SDS011;15074;50.940;5.282;2023-06-26T03:24:03;5.03;;;3.55;;
27666;SDS011;15074;50.940;5.282;2023-06-26T03:26:29;3.97;;;3.20;;
27666;SDS011;15074;50.940;5.282;2023-06-26T03:28:54;3.75;;;3.33;;
27666;SDS011;15074;50.940;5.282;2023-06-26T03:31:20;12.07;;;4.28;;
27666;SDS011;15074;50.940;5.282;2023-06-26T03:33:46;3.83;;;3.45;;
27666;SDS011;15074;50.940;5.282;2023-06-26T03:36:12;4.53;;;4.13;;
27666;SDS011;15074;50.940;5.282;2023-06-26T03:38:37;6.72;;;3.97;;
27666;SDS011;15074;50.940;5.282;2023-06-26T03:41:03;4.03;;;3.03;;
27666;SDS011;15074;50.940;5.282;2023-06-26T03:43:29;4.07;;;3.65;;
27666;SDS011;15074;50.940;5.282;2023-06-26T03:45:54;3.53;;;3.20;;
27666;SDS011;15074;50.940;5.282;2023-06-26T03:48:20;5.10;;;3.22;;
27666;SDS011;15074;50.940;5.282;2023-06-26T03:50:45;4.28;;;3.42;;
27666;SDS011;15074;50.940;5.282;2023-06-26T03:53:11;4.15;;;3.08;;
27666;SDS011;15074;50.940;5.282;2023-06-26T03:55:37;5.05;;;3.58;;
27666;SDS011;15074;50.940;5.282;2023-06-26T03:58:03;4.47;;;3.30;;
27666;SDS011;15074;50.940;5.282;2023-06-26T04:00:29;5.05;;;3.08;;
27666;SDS011;15074;50.940;5.282;2023-06-26T04:02:55;4.38;;;3.25;;
27666;SDS011;15074;50.940;5.282;2023-06-26T04:05:22;4.43;;;2.92;;
27666;SDS011;15074;50.940;5.282;2023-06-26T04:07:52;4.70;;;3.17;;
27666;SDS011;15074;50.940;5.282;2023-06-26T04:10:19;3.50;;;3.17;;
27666;SDS011;15074;50.940;5.282;2023-06-26T04:12:46;3.90;;;2.78;;
27666;SDS011;15074;50.940;5.282;2023-06-26T04:15:12;4.63;;;3.17;;
27666;SDS011;15074;50.940;5.282;2023-06-26T04:17:37;3.88;;;3.20;;
27666;SDS011;15074;50.940;5.282;2023-06-26T04:20:03;4.72;;;3.00;;
27666;SDS011;15074;50.940;5.282;2023-06-26T04:22:33;6.95;;;3.00;;
27666;SDS011;15074;50.940;5.282;2023-06-26T04:25:01;3.35;;;2.85;;
27666;SDS011;15074;50.940;5.282;2023-06-26T04:27:28;3.42;;;3.08;;
27666;SDS011;15074;50.940;5.282;2023-06-26T04:29:53;3.75;;;2.95;;
27666;SDS011;15074;50.940;5.282;2023-06-26T04:32:19;4.78;;;3.15;;
27666;SDS011;15074;50.940;5.282;2023-06-26T04:34:45;5.15;;;2.83;;
27666;SDS011;15074;50.940;5.282;2023-06-26T04:37:12;4.30;;;2.92;;
27666;SDS011;15074;50.940;5.282;2023-06-26T04:39:41;4.75;;;3.63;;
27666;SDS011;15074;50.940;5.282;2023-06-26T04:42:06;4.53;;;2.70;;
27666;SDS011;15074;50.940;5.282;2023-06-26T04:44:32;3.83;;;2.83;;
27666;SDS011;15074;50.940;5.282;2023-06-26T04:46:58;3.83;;;2.95;;
27666;SDS011;15074;50.940;5.282;2023-06-26T04:49:24;5.28;;;3.70;;
27666;SDS011;15074;50.940;5.282;2023-06-26T04:51:50;5.47;;;3.05;;
27666;SDS011;15074;50.940;5.282;2023-06-26T04:54:16;5.30;;;3.55;;
27666;SDS011;15074;50.940;5.282;2023-06-26T04:56:41;5.28;;;3.58;;
27666;SDS011;15074;50.940;5.282;2023-06-26T04:59:08;9.50;;;3.45;;
27666;SDS011;15074;50.940;5.282;2023-06-26T05:01:38;5.32;;;3.80;;
27666;SDS011;15074;50.940;5.282;2023-06-26T05:04:04;3.58;;;2.95;;
27666;SDS011;15074;50.940;5.282;2023-06-26T05:06:31;6.40;;;3.65;;
27666;SDS011;15074;50.940;5.282;2023-06-26T05:08:56;5.65;;;3.63;;
27666;SDS011;15074;50.940;5.282;2023-06-26T05:11:22;6.45;;;3.90;;
27666;SDS011;15074;50.940;5.282;2023-06-26T05:13:49;8.82;;;3.63;;
27666;SDS011;15074;50.940;5.282;2023-06-26T05:16:15;4.82;;;3.35;;
27666;SDS011;15074;50.940;5.282;2023-06-26T05:18:41;5.47;;;3.03;;
27666;SDS011;15074;50.940;5.282;2023-06-26T05:21:06;4.88;;;3.38;;
27666;SDS011;15074;50.940;5.282;2023-06-26T05:23:32;6.00;;;3.75;;
27666;SDS011;15074;50.940;5.282;2023-06-26T05:26:03;6.13;;;3.28;;
27666;SDS011;15074;50.940;5.282;2023-06-26T05:28:29;5.28;;;3.38;;
27666;SDS011;15074;50.940;5.282;2023-06-26T05:30:59;7.25;;;3.45;;
27666;SDS011;15074;50.940;5.282;2023-06-26T05:33:25;8.77;;;3.20;;
27666;SDS011;15074;50.940;5.282;2023-06-26T05:35:52;6.95;;;2.30;;
27666;SDS011;15074;50.940;5.282;2023-06-26T05:38:18;5.22;;;2.85;;
27666;SDS011;15074;50.940;5.282;2023-06-26T05:40:44;5.50;;;3.10;;
27666;SDS011;15074;50.940;5.282;2023-06-26T05:43:10;6.45;;;2.97;;
27666;SDS011;15074;50.940;5.282;2023-06-26T05:45:36;5.85;;;2.88;;
27666;SDS011;15074;50.940;5.282;2023-06-26T05:48:02;7.63;;;3.30;;
27666;SDS011;15074;50.940;5.282;2023-06-26T05:50:28;5.90;;;3.17;;
27666;SDS011;15074;50.940;5.282;2023-06-26T05:52:54;7.68;;;2.92;;
27666;SDS011;15074;50.940;5.282;2023-06-26T05:55:20;9.20;;;2.58;;
27666;SDS011;15074;50.940;5.282;2023-06-26T05:57:46;4.80;;;2.72;;
27666;SDS011;15074;50.940;5.282;2023-06-26T06:00:14;6.15;;;2.55;;
27666;SDS011;15074;50.940;5.282;2023-06-26T06:02:39;6.93;;;2.40;;
27666;SDS011;15074;50.940;5.282;2023-06-26T06:05:07;4.60;;;2.65;;
27666;SDS011;15074;50.940;5.282;2023-06-26T06:07:33;6.55;;;2.45;;
27666;SDS011;15074;50.940;5.282;2023-06-26T06:09:59;5.90;;;2.30;;
27666;SDS011;15074;50.940;5.282;2023-06-26T06:12:26;4.75;;;2.80;;
27666;SDS011;15074;50.940;5.282;2023-06-26T06:14:52;4.65;;;2.55;;
27666;SDS011;15074;50.940;5.282;2023-06-26T06:17:19;6.10;;;2.42;;
27666;SDS011;15074;50.940;5.282;2023-06-26T06:19:45;7.13;;;3.10;;
27666;SDS011;15074;50.940;5.282;2023-06-26T06:22:13;5.47;;;2.10;;
27666;SDS011;15074;50.940;5.282;2023-06-26T06:24:39;6.10;;;2.38;;
27666;SDS011;15074;50.940;5.282;2023-06-26T06:27:04;5.65;;;2.05;;
27666;SDS011;15074;50.940;5.282;2023-06-26T06:29:30;7.55;;;2.25;;
27666;SDS011;15074;50.940;5.282;2023-06-26T06:31:56;6.38;;;2.55;;
27666;SDS011;15074;50.940;5.282;2023-06-26T06:34:22;6.30;;;2.10;;
27666;SDS011;15074;50.940;5.282;2023-06-26T06:36:48;6.35;;;2.15;;
27666;SDS011;15074;50.940;5.282;2023-06-26T06:39:15;5.10;;;2.20;;
27666;SDS011;15074;50.940;5.282;2023-06-26T06:41:41;6.22;;;2.40;;
27666;SDS011;15074;50.940;5.282;2023-06-26T06:44:07;5.57;;;2.10;;
27666;SDS011;15074;50.940;5.282;2023-06-26T06:46:32;6.32;;;2.35;;
27666;SDS011;15074;50.940;5.282;2023-06-26T06:48:58;4.72;;;1.73;;
27666;SDS011;15074;50.940;5.282;2023-06-26T06:51:25;16.77;;;2.70;;
27666;SDS011;15074;50.940;5.282;2023-06-26T06:53:51;10.45;;;2.55;;
27666;SDS011;15074;50.940;5.282;2023-06-26T06:56:17;8.38;;;2.08;;
27666;SDS011;15074;50.940;5.282;2023-06-26T06:58:46;18.30;;;2.55;;
27666;SDS011;15074;50.940;5.282;2023-06-26T07:01:12;6.03;;;1.63;;
27666;SDS011;15074;50.940;5.282;2023-06-26T07:03:38;6.88;;;1.92;;
27666;SDS011;15074;50.940;5.282;2023-06-26T07:06:04;3.13;;;1.45;;
27666;SDS011;15074;50.940;5.282;2023-06-26T07:08:30;4.93;;;2.08;;
27666;SDS011;15074;50.940;5.282;2023-06-26T07:10:56;6.97;;;2.53;;
27666;SDS011;15074;50.940;5.282;2023-06-26T07:13:22;3.92;;;1.60;;
27666;SDS011;15074;50.940;5.282;2023-06-26T07:15:48;5.55;;;2.08;;
27666;SDS011;15074;50.940;5.282;2023-06-26T07:18:14;4.43;;;1.88;;
27666;SDS011;15074;50.940;5.282;2023-06-26T07:20:40;3.78;;;1.88;;
27666;SDS011;15074;50.940;5.282;2023-06-26T07:23:06;8.35;;;1.85;;
27666;SDS011;15074;50.940;5.282;2023-06-26T07:25:31;3.90;;;1.65;;
27666;SDS011;15074;50.940;5.282;2023-06-26T07:27:57;4.50;;;1.80;;
27666;SDS011;15074;50.940;5.282;2023-06-26T07:30:22;4.63;;;1.98;;
27666;SDS011;15074;50.940;5.282;2023-06-26T07:32:49;5.28;;;1.63;;
27666;SDS011;15074;50.940;5.282;2023-06-26T07:35:15;6.28;;;1.95;;
27666;SDS011;15074;50.940;5.282;2023-06-26T07:37:41;4.57;;;1.70;;
27666;SDS011;15074;50.940;5.282;2023-06-26T07:40:07;6.63;;;1.80;;
27666;SDS011;15074;50.940;5.282;2023-06-26T07:42:33;3.42;;;1.42;;
27666;SDS011;15074;50.940;5.282;2023-06-26T07:44:59;3.65;;;1.60;;
27666;SDS011;15074;50.940;5.282;2023-06-26T07:47:24;7.43;;;1.80;;
27666;SDS011;15074;50.940;5.282;2023-06-26T07:49:50;4.10;;;1.65;;
27666;SDS011;15074;50.940;5.282;2023-06-26T07:52:16;3.20;;;1.55;;
27666;SDS011;15074;50.940;5.282;2023-06-26T07:54:42;3.00;;;1.20;;
27666;SDS011;15074;50.940;5.282;2023-06-26T07:57:08;3.83;;;1.42;;
27666;SDS011;15074;50.940;5.282;2023-06-26T07:59:34;4.88;;;2.05;;
27666;SDS011;15074;50.940;5.282;2023-06-26T08:02:00;6.00;;;1.58;;
27666;SDS011;15074;50.940;5.282;2023-06-26T08:04:27;9.82;;;1.80;;
27666;SDS011;15074;50.940;5.282;2023-06-26T08:06:55;7.57;;;1.88;;
27666;SDS011;15074;50.940;5.282;2023-06-26T08:09:23;7.28;;;2.30;;
27666;SDS011;15074;50.940;5.282;2023-06-26T08:11:49;4.07;;;1.70;;
27666;SDS011;15074;50.940;5.282;2023-06-26T08:14:16;6.05;;;2.10;;
27666;SDS011;15074;50.940;5.282;2023-06-26T08:16:42;4.72;;;1.65;;
27666;SDS011;15074;50.940;5.282;2023-06-26T08:19:11;5.55;;;1.83;;
27666;SDS011;15074;50.940;5.282;2023-06-26T08:21:39;4.07;;;1.85;;
27666;SDS011;15074;50.940;5.282;2023-06-26T08:24:05;4.85;;;1.50;;
27666;SDS011;15074;50.940;5.282;2023-06-26T08:26:31;19.45;;;2.78;;
27666;SDS011;15074;50.940;5.282;2023-06-26T08:28:56;3.92;;;1.65;;
27666;SDS011;15074;50.940;5.282;2023-06-26T08:31:22;3.38;;;1.70;;
27666;SDS011;15074;50.940;5.282;2023-06-26T08:33:48;8.60;;;1.95;;
27666;SDS011;15074;50.940;5.282;2023-06-26T08:36:13;5.50;;;1.35;;
27666;SDS011;15074;50.940;5.282;2023-06-26T08:38:39;2.92;;;1.52;;
27666;SDS011;15074;50.940;5.282;2023-06-26T08:41:08;3.00;;;1.30;;
27666;SDS011;15074;50.940;5.282;2023-06-26T08:43:35;4.13;;;1.55;;
27666;SDS011;15074;50.940;5.282;2023-06-26T08:46:01;3.63;;;1.48;;
27666;SDS011;15074;50.940;5.282;2023-06-26T08:48:29;4.45;;;1.60;;
27666;SDS011;15074;50.940;5.282;2023-06-26T08:50:59;4.63;;;1.48;;
27666;SDS011;15074;50.940;5.282;2023-06-26T08:53:31;4.35;;;1.70;;
27666;SDS011;15074;50.940;5.282;2023-06-26T08:56:04;5.88;;;1.50;;
27666;SDS011;15074;50.940;5.282;2023-06-26T08:58:31;3.40;;;1.50;;
27666;SDS011;15074;50.940;5.282;2023-06-26T09:00:57;3.63;;;1.52;;
27666;SDS011;15074;50.940;5.282;2023-06-26T09:03:24;3.22;;;1.55;;
27666;SDS011;15074;50.940;5.282;2023-06-26T09:05:51;3.40;;;1.33;;
27666;SDS011;15074;50.940;5.282;2023-06-26T09:08:16;4.00;;;1.52;;
27666;SDS011;15074;50.940;5.282;2023-06-26T09:10:42;2.30;;;1.25;;
27666;SDS011;15074;50.940;5.282;2023-06-26T09:13:08;5.90;;;1.73;;
27666;SDS011;15074;50.940;5.282;2023-06-26T09:15:37;3.63;;;1.10;;
27666;SDS011;15074;50.940;5.282;2023-06-26T09:18:06;6.68;;;1.15;;
27666;SDS011;15074;50.940;5.282;2023-06-26T09:20:33;1.92;;;1.05;;
27666;SDS011;15074;50.940;5.282;2023-06-26T09:22:59;3.65;;;1.52;;
27666;SDS011;15074;50.940;5.282;2023-06-26T09:25:25;6.55;;;1.23;;
27666;SDS011;15074;50.940;5.282;2023-06-26T09:27:51;2.72;;;1.15;;
27666;SDS011;15074;50.940;5.282;2023-06-26T09:30:18;5.47;;;1.35;;
27666;SDS011;15074;50.940;5.282;2023-06-26T09:32:44;4.35;;;1.20;;
27666;SDS011;15074;50.940;5.282;2023-06-26T09:35:10;2.20;;;1.08;;
27666;SDS011;15074;50.940;5.282;2023-06-26T09:37:38;3.88;;;1.10;;
27666;SDS011;15074;50.940;5.282;2023-06-26T09:40:04;11.45;;;1.42;;
27666;SDS011;15074;50.940;5.282;2023-06-26T09:42:30;4.22;;;1.10;;
27666;SDS011;15074;50.940;5.282;2023-06-26T09:44:56;4.07;;;1.38;;
27666;SDS011;15074;50.940;5.282;2023-06-26T09:47:21;2.10;;;1.00;;
27666;SDS011;15074;50.940;5.282;2023-06-26T09:49:47;6.18;;;1.30;;
27666;SDS011;15074;50.940;5.282;2023-06-26T09:52:16;4.95;;;1.33;;
27666;SDS011;15074;50.940;5.282;2023-06-26T09:54:43;4.43;;;1.48;;
27666;SDS011;15074;50.940;5.282;2023-06-26T09:57:13;2.53;;;1.10;;
27666;SDS011;15074;50.940;5.282;2023-06-26T09:59:43;4.57;;;0.98;;
27666;SDS011;15074;50.940;5.282;2023-06-26T10:02:12;10.52;;;2.00;;
27666;SDS011;15074;50.940;5.282;2023-06-26T10:04:44;2.72;;;0.93;;
27666;SDS011;15074;50.940;5.282;2023-06-26T10:07:11;2.25;;;1.05;;
27666;SDS011;15074;50.940;5.282;2023-06-26T10:09:40;3.83;;;0.98;;
27666;SDS011;15074;50.940;5.282;2023-06-26T10:12:29;4.22;;;0.98;;
27666;SDS011;15074;50.940;5.282;2023-06-26T10:14:55;2.15;;;0.60;;
27666;SDS011;15074;50.940;5.282;2023-06-26T10:17:22;3.08;;;1.00;;
27666;SDS011;15074;50.940;5.282;2023-06-26T10:19:52;1.33;;;0.60;;
27666;SDS011;15074;50.940;5.282;2023-06-26T10:22:21;4.63;;;0.80;;
27666;SDS011;15074;50.940;5.282;2023-06-26T10:24:52;2.65;;;0.70;;
27666;SDS011;15074;50.940;5.282;2023-06-26T10:27:24;1.95;;;0.63;;
27666;SDS011;15074;50.940;5.282;2023-06-26T10:29:55;2.10;;;0.68;;
27666;SDS011;15074;50.940;5.282;2023-06-26T10:32:25;2.22;;;0.90;;
27666;SDS011;15074;50.940;5.282;2023-06-26T10:34:55;1.88;;;0.60;;
27666;SDS011;15074;50.940;5.282;2023-06-26T10:37:21;7.72;;;0.85;;
27666;SDS011;15074;50.940;5.282;2023-06-26T10:40:21;1.70;;;0.60;;
27666;SDS011;15074;50.940;5.282;2023-06-26T10:42:49;2.30;;;0.60;;
27666;SDS011;15074;50.940;5.282;2023-06-26T10:45:16;1.35;;;0.70;;
27666;SDS011;15074;50.940;5.282;2023-06-26T10:47:46;2.42;;;0.70;;
27666;SDS011;15074;50.940;5.282;2023-06-26T10:55:57;2.83;;;0.70;;
27666;SDS011;15074;50.940;5.282;2023-06-26T11:03:47;3.05;;;0.60;;
27666;SDS011;15074;50.940;5.282;2023-06-26T11:06:18;1.50;;;0.60;;
27666;SDS011;15074;50.940;5.282;2023-06-26T11:08:49;2.67;;;0.63;;
27666;SDS011;15074;50.940;5.282;2023-06-26T11:14:20;2.70;;;0.70;;
27666;SDS011;15074;50.940;5.282;2023-06-26T11:16:47;3.15;;;0.75;;
27666;SDS011;15074;50.940;5.282;2023-06-26T11:19:15;2.47;;;0.80;;
27666;SDS011;15074;50.940;5.282;2023-06-26T11:24:08;3.72;;;0.70;;
27666;SDS011;15074;50.940;5.282;2023-06-26T11:26:42;2.97;;;0.70;;
27666;SDS011;15074;50.940;5.282;2023-06-26T11:29:09;2.08;;;0.50;;
27666;SDS011;15074;50.940;5.282;2023-06-26T11:31:36;4.57;;;0.80;;
27666;SDS011;15074;50.940;5.282;2023-06-26T11:34:10;3.67;;;0.93;;
27666;SDS011;15074;50.940;5.282;2023-06-26T11:36:38;1.70;;;0.70;;
27666;SDS011;15074;50.940;5.282;2023-06-26T11:39:05;1.73;;;0.60;;
27666;SDS011;15074;50.940;5.282;2023-06-26T11:41:31;0.82;;;0.60;;
27666;SDS011;15074;50.940;5.282;2023-06-26T11:44:05;1.30;;;0.50;;
27666;SDS011;15074;50.940;5.282;2023-06-26T11:46:33;1.58;;;0.65;;
27666;SDS011;15074;50.940;5.282;2023-06-26T11:51:27;4.88;;;0.63;;
27666;SDS011;15074;50.940;5.282;2023-06-26T11:53:54;1.48;;;0.70;;
27666;SDS011;15074;50.940;5.282;2023-06-26T11:56:19;1.42;;;0.65;;
27666;SDS011;15074;50.940;5.282;2023-06-26T12:01:29;2.53;;;0.60;;
27666;SDS011;15074;50.940;5.282;2023-06-26T12:04:07;2.45;;;0.88;;
27666;SDS011;15074;50.940;5.282;2023-06-26T12:06:35;2.95;;;0.80;;
27666;SDS011;15074;50.940;5.282;2023-06-26T12:09:04;2.90;;;0.60;;
27666;SDS011;15074;50.940;5.282;2023-06-26T12:11:32;2.22;;;1.00;;
27666;SDS011;15074;50.940;5.282;2023-06-26T12:13:59;1.52;;;0.63;;
27666;SDS011;15074;50.940;5.282;2023-06-26T12:16:27;2.03;;;0.80;;
27666;SDS011;15074;50.940;5.282;2023-06-26T12:19:00;4.05;;;0.70;;
27666;SDS011;15074;50.940;5.282;2023-06-26T12:24:02;2.88;;;0.70;;
27666;SDS011;15074;50.940;5.282;2023-06-26T12:26:29;2.22;;;0.80;;
27666;SDS011;15074;50.940;5.282;2023-06-26T12:29:02;1.67;;;0.68;;
27666;SDS011;15074;50.940;5.282;2023-06-26T12:31:32;1.42;;;0.60;;
27666;SDS011;15074;50.940;5.282;2023-06-26T12:33:59;1.95;;;0.73;;
27666;SDS011;15074;50.940;5.282;2023-06-26T12:36:25;3.90;;;0.68;;
27666;SDS011;15074;50.940;5.282;2023-06-26T12:38:52;1.48;;;0.70;;
27666;SDS011;15074;50.940;5.282;2023-06-26T12:41:19;2.80;;;0.93;;
27666;SDS011;15074;50.940;5.282;2023-06-26T12:43:45;1.25;;;0.70;;
27666;SDS011;15074;50.940;5.282;2023-06-26T12:46:11;1.95;;;0.60;;
27666;SDS011;15074;50.940;5.282;2023-06-26T12:51:11;1.83;;;0.65;;
27666;SDS011;15074;50.940;5.282;2023-06-26T12:53:38;2.10;;;0.80;;
27666;SDS011;15074;50.940;5.282;2023-06-26T12:56:05;0.70;;;0.60;;
27666;SDS011;15074;50.940;5.282;2023-06-26T12:58:32;1.85;;;0.60;;
27666;SDS011;15074;50.940;5.282;2023-06-26T13:00:58;2.13;;;0.70;;
27666;SDS011;15074;50.940;5.282;2023-06-26T13:03:23;2.10;;;0.80;;
27666;SDS011;15074;50.940;5.282;2023-06-26T13:05:49;2.00;;;0.80;;
27666;SDS011;15074;50.940;5.282;2023-06-26T13:08:16;1.55;;;0.70;;
27666;SDS011;15074;50.940;5.282;2023-06-26T13:10:43;2.45;;;1.10;;
27666;SDS011;15074;50.940;5.282;2023-06-26T13:13:12;1.60;;;0.63;;
27666;SDS011;15074;50.940;5.282;2023-06-26T13:15:38;2.55;;;0.70;;
27666;SDS011;15074;50.940;5.282;2023-06-26T13:18:04;3.25;;;1.30;;
27666;SDS011;15074;50.940;5.282;2023-06-26T13:20:29;3.95;;;0.80;;
27666;SDS011;15074;50.940;5.282;2023-06-26T13:22:55;2.40;;;0.70;;
27666;SDS011;15074;50.940;5.282;2023-06-26T13:25:21;1.20;;;0.60;;
27666;SDS011;15074;50.940;5.282;2023-06-26T13:27:47;1.92;;;0.85;;
27666;SDS011;15074;50.940;5.282;2023-06-26T13:30:14;2.38;;;0.80;;
27666;SDS011;15074;50.940;5.282;2023-06-26T13:32:41;2.53;;;0.88;;
27666;SDS011;15074;50.940;5.282;2023-06-26T13:35:08;1.38;;;0.80;;
27666;SDS011;15074;50.940;5.282;2023-06-26T13:37:34;1.42;;;0.60;;
27666;SDS011;15074;50.940;5.282;2023-06-26T13:40:01;2.22;;;0.63;;
27666;SDS011;15074;50.940;5.282;2023-06-26T13:42:28;3.35;;;0.90;;
27666;SDS011;15074;50.940;5.282;2023-06-26T13:44:53;2.50;;;1.02;;
27666;SDS011;15074;50.940;5.282;2023-06-26T13:47:19;0.80;;;0.52;;
27666;SDS011;15074;50.940;5.282;2023-06-26T13:49:45;1.45;;;0.80;;
27666;SDS011;15074;50.940;5.282;2023-06-26T13:52:11;4.47;;;0.70;;
27666;SDS011;15074;50.940;5.282;2023-06-26T13:54:36;1.55;;;0.75;;
27666;SDS011;15074;50.940;5.282;2023-06-26T13:57:04;1.40;;;0.80;;
27666;SDS011;15074;50.940;5.282;2023-06-26T13:59:33;1.58;;;0.60;;
27666;SDS011;15074;50.940;5.282;2023-06-26T14:01:59;1.77;;;0.70;;
27666;SDS011;15074;50.940;5.282;2023-06-26T14:04:25;3.22;;;0.85;;
27666;SDS011;15074;50.940;5.282;2023-06-26T14:06:52;1.23;;;0.70;;
27666;SDS011;15074;50.940;5.282;2023-06-26T14:09:17;2.35;;;0.80;;
27666;SDS011;15074;50.940;5.282;2023-06-26T14:11:43;1.15;;;0.77;;
27666;SDS011;15074;50.940;5.282;2023-06-26T14:14:10;5.05;;;0.70;;
27666;SDS011;15074;50.940;5.282;2023-06-26T14:16:35;3.78;;;0.70;;
27666;SDS011;15074;50.940;5.282;2023-06-26T14:19:01;3.28;;;0.77;;
27666;SDS011;15074;50.940;5.282;2023-06-26T14:21:27;1.33;;;0.80;;
27666;SDS011;15074;50.940;5.282;2023-06-26T14:23:54;0.95;;;0.60;;
27666;SDS011;15074;50.940;5.282;2023-06-26T14:26:20;1.83;;;0.70;;
27666;SDS011;15074;50.940;5.282;2023-06-26T14:28:46;2.35;;;0.80;;
27666;SDS011;15074;50.940;5.282;2023-06-26T14:31:12;2.17;;;0.80;;
27666;SDS011;15074;50.940;5.282;2023-06-26T14:33:38;2.03;;;0.60;;
27666;SDS011;15074;50.940;5.282;2023-06-26T14:36:04;1.90;;;0.70;;
27666;SDS011;15074;50.940;5.282;2023-06-26T14:38:29;1.33;;;0.70;;
27666;SDS011;15074;50.940;5.282;2023-06-26T14:40:55;4.00;;;0.80;;
27666;SDS011;15074;50.940;5.282;2023-06-26T14:43:21;2.05;;;0.80;;
27666;SDS011;15074;50.940;5.282;2023-06-26T14:45:47;1.85;;;0.80;;
27666;SDS011;15074;50.940;5.282;2023-06-26T14:48:12;4.57;;;1.00;;
27666;SDS011;15074;50.940;5.282;2023-06-26T14:50:38;1.25;;;0.77;;
27666;SDS011;15074;50.940;5.282;2023-06-26T14:53:04;2.22;;;0.90;;
27666;SDS011;15074;50.940;5.282;2023-06-26T14:55:30;2.00;;;0.80;;
27666;SDS011;15074;50.940;5.282;2023-06-26T14:57:55;2.25;;;0.90;;
27666;SDS011;15074;50.940;5.282;2023-06-26T15:00:21;0.95;;;0.70;;
27666;SDS011;15074;50.940;5.282;2023-06-26T15:02:47;2.38;;;0.90;;
27666;SDS011;15074;50.940;5.282;2023-06-26T15:05:13;3.50;;;0.95;;
27666;SDS011;15074;50.940;5.282;2023-06-26T15:07:39;4.35;;;1.15;;
27666;SDS011;15074;50.940;5.282;2023-06-26T15:10:05;1.92;;;1.00;;
27666;SDS011;15074;50.940;5.282;2023-06-26T15:12:31;2.35;;;0.93;;
27666;SDS011;15074;50.940;5.282;2023-06-26T15:14:57;1.45;;;0.75;;
27666;SDS011;15074;50.940;5.282;2023-06-26T15:17:23;2.60;;;0.90;;
27666;SDS011;15074;50.940;5.282;2023-06-26T15:19:49;1.92;;;1.20;;
27666;SDS011;15074;50.940;5.282;2023-06-26T15:22:17;2.88;;;1.02;;